This is the latest recevied weather packets stored in our database for station/object YM2KV-13. If no packets are shown the sender has not sent any weather packets the latest 10 day(s).
| Time | Temp. | Humidity | Pressure | Rain* | Wind** | Luminosity | Snow |
|---|---|---|---|---|---|---|---|
| 1777573179 | 11.67° C | 76% | 1025.8 hPa | - | - | - | - |
| 1777571979 | 11.11° C | 78% | 1025.7 hPa | - | - | - | - |
| 1777570779 | 11.67° C | 77% | 1025.7 hPa | - | - | - | - |
| 1777570179 | 11.67° C | 75% | 1025.9 hPa | - | - | - | - |
| 1777569579 | 11.67° C | 75% | 1025.7 hPa | - | - | - | - |
| 1777568979 | 11.67° C | 75% | 1025.5 hPa | - | - | - | - |
| 1777567779 | 12.78° C | 72% | 1025.5 hPa | - | - | - | - |
| 1777567179 | 12.78° C | 70% | 1025.6 hPa | - | - | - | - |
| 1777566579 | 13.33° C | 69% | 1025.6 hPa | - | - | - | - |
| 1777565979 | 13.33° C | 69% | 1025.6 hPa | - | - | - | - |
| 1777565379 | 13.89° C | 68% | 1025.8 hPa | - | - | - | - |
| 1777564779 | 13.89° C | 68% | 1025.8 hPa | - | - | - | - |
| 1777564179 | 13.89° C | 67% | 1025.9 hPa | - | - | - | - |
| 1777563579 | 13.89° C | 68% | 1025.9 hPa | - | - | - | - |
| 1777562979 | 13.89° C | 67% | 1025.9 hPa | - | - | - | - |
| 1777562379 | 14.44° C | 66% | 1025.9 hPa | - | - | - | - |
| 1777561179 | 15° C | 65% | 1026 hPa | - | - | - | - |
| 1777560579 | 15.56° C | 62% | 1025.9 hPa | - | - | - | - |
| 1777559979 | 16.11° C | 59% | 1025.9 hPa | - | - | - | - |
| 1777559379 | 17.22° C | 56% | 1025.9 hPa | - | - | - | - |
| 1777558779 | 17.22° C | 55% | 1025.8 hPa | - | - | - | - |
| 1777558179 | 18.33° C | 53% | 1025.8 hPa | - | - | - | - |
| 1777557579 | 18.89° C | 52% | 1025.7 hPa | - | - | - | - |
| 1777555778 | 20° C | 49% | 1025.9 hPa | - | - | - | - |
| 1777554578 | 21.11° C | 47% | 1026 hPa | - | - | - | - |
* Rain since midnight (hover to see other rain measurements)
** Current wind speed in m/s (hover to see current wind gust speed)